createdAt,value
2023-02-06T00:01:49.864Z,5.10
2023-02-06T00:04:16.985Z,5.78
2023-02-06T00:06:43.806Z,5.55
2023-02-06T00:09:11.165Z,6.05
2023-02-06T00:11:37.823Z,5.05
2023-02-06T00:14:04.475Z,6.90
2023-02-06T00:16:33.527Z,5.55
2023-02-06T00:19:00.443Z,5.13
2023-02-06T00:21:28.314Z,5.68
2023-02-06T00:23:57.145Z,5.93
2023-02-06T00:26:24.402Z,4.70
2023-02-06T00:28:50.947Z,4.63
2023-02-06T00:31:18.010Z,6.13
2023-02-06T00:33:44.739Z,5.40
2023-02-06T00:36:11.935Z,5.30
2023-02-06T00:38:38.584Z,5.15
2023-02-06T00:41:06.122Z,5.15
2023-02-06T00:43:33.016Z,4.63
2023-02-06T00:45:59.571Z,5.18
2023-02-06T00:48:26.480Z,5.85
2023-02-06T00:50:53.727Z,5.75
2023-02-06T00:53:21.009Z,4.05
2023-02-06T00:55:47.640Z,5.55
2023-02-06T00:58:14.198Z,5.47
2023-02-06T01:00:43.111Z,5.60
2023-02-06T01:03:09.976Z,4.82
2023-02-06T01:05:37.566Z,5.20
2023-02-06T01:08:04.845Z,4.28
2023-02-06T01:10:31.994Z,5.57
2023-02-06T01:12:58.614Z,6.35
2023-02-06T01:15:25.280Z,5.53
2023-02-06T01:17:52.018Z,4.93
2023-02-06T01:20:18.684Z,5.15
2023-02-06T01:22:45.382Z,5.82
2023-02-06T01:25:12.015Z,6.30
2023-02-06T01:27:39.392Z,5.53
2023-02-06T01:30:07.119Z,6.10
2023-02-06T01:32:38.435Z,6.07
2023-02-06T01:35:06.971Z,6.30
2023-02-06T01:37:35.118Z,7.15
2023-02-06T01:40:02.259Z,5.28
2023-02-06T01:42:28.971Z,5.68
2023-02-06T01:45:17.286Z,5.63
2023-02-06T01:47:43.863Z,5.85
2023-02-06T01:50:10.529Z,6.13
2023-02-06T01:52:37.628Z,7.78
2023-02-06T01:55:04.790Z,5.95
2023-02-06T01:57:31.974Z,5.70
2023-02-06T02:00:03.517Z,5.30
2023-02-06T02:02:39.727Z,6.32
2023-02-06T02:05:10.004Z,5.80
2023-02-06T02:07:39.017Z,7.03
2023-02-06T02:10:05.873Z,5.95
2023-02-06T02:12:32.652Z,5.22
2023-02-06T02:14:59.566Z,6.38
2023-02-06T02:17:55.970Z,6.20
2023-02-06T02:20:33.423Z,6.43
2023-02-06T02:23:24.099Z,5.63
2023-02-06T02:26:15.358Z,5.95
2023-02-06T02:29:27.647Z,5.88
2023-02-06T02:32:01.871Z,6.00
2023-02-06T02:35:07.135Z,6.03
2023-02-06T02:37:53.887Z,6.28
2023-02-06T02:40:25.341Z,5.75
2023-02-06T02:43:04.728Z,6.38
2023-02-06T02:45:48.602Z,6.13
2023-02-06T02:48:18.866Z,5.97
2023-02-06T02:50:46.999Z,4.93
2023-02-06T02:53:14.757Z,6.47
2023-02-06T02:55:41.612Z,5.85
2023-02-06T02:58:10.965Z,5.97
2023-02-06T03:00:43.572Z,7.15
2023-02-06T03:03:12.342Z,6.95
2023-02-06T03:05:58.459Z,6.30
2023-02-06T03:08:34.907Z,7.28
2023-02-06T03:11:20.618Z,6.53
2023-02-06T03:14:06.388Z,7.05
2023-02-06T03:16:40.047Z,7.50
2023-02-06T03:19:17.115Z,7.57
2023-02-06T03:21:44.831Z,7.97
2023-02-06T03:24:14.797Z,7.57
2023-02-06T03:26:42.317Z,7.30
2023-02-06T03:29:11.578Z,7.05
2023-02-06T03:31:46.125Z,7.47
2023-02-06T03:38:04.705Z,6.40
2023-02-06T03:40:31.631Z,6.50
2023-02-06T03:43:00.924Z,6.80
2023-02-06T03:45:40.322Z,6.72
2023-02-06T03:48:19.077Z,7.35
2023-02-06T03:50:47.832Z,5.70
2023-02-06T03:53:14.668Z,6.90
2023-02-06T03:55:43.223Z,6.32
2023-02-06T03:58:12.059Z,7.47
2023-02-06T04:00:39.441Z,6.30
2023-02-06T04:03:06.205Z,6.93
2023-02-06T04:05:32.794Z,6.07
2023-02-06T04:07:59.276Z,6.68
2023-02-06T04:10:26.501Z,6.03
2023-02-06T04:12:53.704Z,6.97
2023-02-06T04:15:20.247Z,6.50
2023-02-06T04:17:59.187Z,7.15
2023-02-06T04:20:26.838Z,6.07
2023-02-06T04:22:53.369Z,6.57
2023-02-06T04:25:19.933Z,6.57
2023-02-06T04:27:46.432Z,6.30
2023-02-06T04:30:13.355Z,6.65
2023-02-06T04:32:39.848Z,6.60
2023-02-06T04:35:07.142Z,7.20
2023-02-06T04:37:33.651Z,7.82
2023-02-06T04:40:00.154Z,6.18
2023-02-06T04:42:26.676Z,5.90
2023-02-06T04:44:53.195Z,7.32
2023-02-06T04:47:19.718Z,8.30
2023-02-06T04:49:46.227Z,8.23
2023-02-06T04:52:12.772Z,7.47
2023-02-06T04:54:39.253Z,9.20
2023-02-06T04:57:05.763Z,9.38
2023-02-06T04:59:32.253Z,7.78
2023-02-06T05:01:58.803Z,9.43
2023-02-06T05:04:25.336Z,8.10
2023-02-06T05:06:51.914Z,8.45
2023-02-06T05:09:18.429Z,9.80
2023-02-06T05:11:45.210Z,7.95
2023-02-06T05:14:12.032Z,9.77
2023-02-06T05:16:38.660Z,7.82
2023-02-06T05:19:05.166Z,8.55
2023-02-06T05:21:31.672Z,8.23
2023-02-06T05:23:58.211Z,9.07
2023-02-06T05:26:24.864Z,8.38
2023-02-06T05:28:51.544Z,8.50
2023-02-06T05:31:19.902Z,9.25
2023-02-06T05:33:50.414Z,9.43
2023-02-06T05:36:18.978Z,10.38
2023-02-06T05:38:45.788Z,10.70
2023-02-06T05:41:12.343Z,10.27
2023-02-06T05:43:38.873Z,11.60
2023-02-06T05:46:05.590Z,11.52
2023-02-06T05:48:34.387Z,11.18
2023-02-06T05:51:01.324Z,12.45
2023-02-06T05:53:27.907Z,13.27
2023-02-06T05:55:54.492Z,11.75
2023-02-06T05:58:21.050Z,12.68
2023-02-06T06:00:47.598Z,12.98
2023-02-06T06:03:14.133Z,16.10
2023-02-06T06:05:40.748Z,11.77
2023-02-06T06:08:07.257Z,13.98
2023-02-06T06:10:33.759Z,14.05
2023-02-06T06:13:00.301Z,14.90
2023-02-06T06:15:26.860Z,15.38
2023-02-06T06:17:54.692Z,14.98
2023-02-06T06:20:21.432Z,15.02
2023-02-06T06:22:47.919Z,14.00
2023-02-06T06:25:14.444Z,15.00
2023-02-06T06:27:41.170Z,14.85
2023-02-06T06:30:08.446Z,14.82
2023-02-06T06:32:34.956Z,14.25
2023-02-06T06:35:01.562Z,16.98
2023-02-06T06:37:28.174Z,15.40
2023-02-06T06:39:54.671Z,17.00
2023-02-06T06:42:21.156Z,17.27
2023-02-06T06:44:47.695Z,17.75
2023-02-06T06:47:14.198Z,18.13
2023-02-06T06:49:40.707Z,17.55
2023-02-06T06:52:19.539Z,17.23
2023-02-06T06:54:52.323Z,16.70
2023-02-06T06:57:19.321Z,16.55
2023-02-06T06:59:45.887Z,17.88
2023-02-06T07:02:12.441Z,16.48
2023-02-06T07:04:39.060Z,16.23
2023-02-06T07:07:05.786Z,17.17
2023-02-06T07:09:32.349Z,16.60
2023-02-06T07:11:58.888Z,17.63
2023-02-06T07:14:25.427Z,15.02
2023-02-06T07:16:52.036Z,16.42
2023-02-06T07:19:18.807Z,14.82
2023-02-06T07:21:45.375Z,16.52
2023-02-06T07:24:11.835Z,14.63
2023-02-06T07:26:38.375Z,14.07
2023-02-06T07:29:04.948Z,13.75
2023-02-06T07:31:31.906Z,14.20
2023-02-06T07:33:59.746Z,13.57
2023-02-06T07:36:26.299Z,13.60
2023-02-06T07:38:52.800Z,14.05
2023-02-06T07:41:19.259Z,12.77
2023-02-06T07:43:45.983Z,14.10
2023-02-06T07:46:12.597Z,12.65
2023-02-06T07:48:39.202Z,11.65
2023-02-06T07:51:09.808Z,12.35
2023-02-06T07:53:37.230Z,13.00
2023-02-06T07:56:14.765Z,12.63
2023-02-06T07:58:41.536Z,12.35
2023-02-06T08:01:08.655Z,13.00
2023-02-06T08:03:35.257Z,11.57
2023-02-06T08:06:07.623Z,12.85
2023-02-06T08:08:34.119Z,12.43
2023-02-06T08:11:04.743Z,12.20
2023-02-06T08:13:31.247Z,13.07
2023-02-06T08:15:57.760Z,13.18
2023-02-06T08:18:24.323Z,13.60
2023-02-06T08:20:50.805Z,13.95
2023-02-06T08:23:17.988Z,13.82
2023-02-06T08:25:45.742Z,14.13
2023-02-06T08:28:14.838Z,14.48
2023-02-06T08:30:41.539Z,13.68
2023-02-06T08:33:08.221Z,14.93
2023-02-06T08:35:35.095Z,14.90
2023-02-06T08:38:01.972Z,13.80
2023-02-06T08:40:28.561Z,14.13
2023-02-06T08:42:55.044Z,14.50
2023-02-06T08:45:21.590Z,14.65
2023-02-06T08:47:48.119Z,16.23
2023-02-06T08:50:14.872Z,15.77
2023-02-06T08:52:41.477Z,16.50
2023-02-06T08:55:08.252Z,16.67
2023-02-06T08:57:34.833Z,13.95
2023-02-06T09:00:01.307Z,14.60
2023-02-06T09:02:27.905Z,14.85
2023-02-06T09:04:54.500Z,16.10
2023-02-06T09:07:22.351Z,15.35
2023-02-06T09:09:48.926Z,16.70
2023-02-06T09:12:15.708Z,17.02
2023-02-06T09:14:42.263Z,17.70
2023-02-06T09:17:08.995Z,18.98
2023-02-06T09:19:35.533Z,18.75
2023-02-06T09:22:02.095Z,17.45
2023-02-06T09:24:30.510Z,17.92
2023-02-06T09:27:00.162Z,18.35
2023-02-06T09:29:29.078Z,24.67
2023-02-06T09:31:57.223Z,29.77
2023-02-06T09:34:25.707Z,32.35
2023-02-06T09:36:54.382Z,32.72
2023-02-06T09:39:20.998Z,36.13
2023-02-06T09:41:50.917Z,40.45
2023-02-06T09:44:53.444Z,37.15
2023-02-06T09:47:25.131Z,34.95
2023-02-06T09:50:02.614Z,35.05
2023-02-06T09:52:34.831Z,37.78
2023-02-06T09:55:20.947Z,35.35
2023-02-06T09:58:05.705Z,37.67
2023-02-06T10:00:45.855Z,31.10
2023-02-06T10:03:38.526Z,33.92
2023-02-06T10:06:23.522Z,32.25
2023-02-06T10:09:08.176Z,32.25
2023-02-06T10:11:46.594Z,32.30
2023-02-06T10:14:23.601Z,31.50
2023-02-06T10:16:55.156Z,31.98
2023-02-06T10:19:46.607Z,29.75
2023-02-06T10:22:20.866Z,25.77
2023-02-06T10:25:12.197Z,24.67
2023-02-06T10:30:06.856Z,21.67
2023-02-06T10:32:43.380Z,24.52
2023-02-06T10:35:29.921Z,23.50
2023-02-06T10:38:22.413Z,21.50
2023-02-06T10:41:16.919Z,24.45
2023-02-06T10:44:06.493Z,23.20
2023-02-06T10:46:53.493Z,21.52
2023-02-06T10:49:34.107Z,19.50
2023-02-06T10:52:03.578Z,20.52
2023-02-06T10:54:43.225Z,20.65
2023-02-06T10:57:16.411Z,23.85
2023-02-06T10:59:48.734Z,23.77
2023-02-06T11:02:48.980Z,21.67
2023-02-06T11:05:25.982Z,20.80
2023-02-06T11:07:59.247Z,20.92
2023-02-06T11:10:26.655Z,22.27
2023-02-06T11:13:05.074Z,22.13
2023-02-06T11:15:36.620Z,21.90
2023-02-06T11:18:05.523Z,20.63
2023-02-06T11:20:34.752Z,21.10
2023-02-06T11:23:24.663Z,20.90
2023-02-06T11:26:19.802Z,19.77
2023-02-06T11:28:52.367Z,20.98
2023-02-06T11:31:21.337Z,21.15
2023-02-06T11:33:52.908Z,19.73
2023-02-06T11:36:39.687Z,19.75
2023-02-06T11:39:20.806Z,23.25
2023-02-06T11:42:02.210Z,22.60
2023-02-06T11:46:58.477Z,22.95
2023-02-06T11:49:28.901Z,25.08
2023-02-06T11:51:59.921Z,25.75
2023-02-06T11:54:32.144Z,24.95
2023-02-06T11:57:07.702Z,25.30
2023-02-06T11:59:36.543Z,26.60
2023-02-06T12:02:24.397Z,27.50
2023-02-06T12:04:53.059Z,28.42
2023-02-06T12:07:30.294Z,28.27
2023-02-06T12:09:59.187Z,27.00
2023-02-06T12:12:29.227Z,26.52
2023-02-06T12:15:33.108Z,25.45
2023-02-06T12:18:04.076Z,27.73
2023-02-06T12:20:45.651Z,25.38
2023-02-06T12:23:18.781Z,27.50
2023-02-06T12:25:49.858Z,27.02
2023-02-06T12:28:19.965Z,25.98
2023-02-06T12:30:56.977Z,24.95
2023-02-06T12:33:37.051Z,26.08
2023-02-06T12:36:17.058Z,25.50
2023-02-06T12:39:08.082Z,27.85
2023-02-06T12:41:53.131Z,30.30
2023-02-06T12:44:56.698Z,28.77
2023-02-06T12:47:29.273Z,29.67
2023-02-06T12:50:14.488Z,30.80
2023-02-06T12:52:50.098Z,30.10
2023-02-06T12:55:29.071Z,28.80
2023-02-06T12:57:56.308Z,30.17
2023-02-06T13:00:29.095Z,28.25
2023-02-06T13:03:22.893Z,28.23
2023-02-06T13:05:52.578Z,28.77
2023-02-06T13:08:38.383Z,25.92
2023-02-06T13:11:08.312Z,22.70
2023-02-06T13:13:40.001Z,22.40
2023-02-06T13:16:07.423Z,20.75
2023-02-06T13:18:44.535Z,21.45
2023-02-06T13:21:28.767Z,22.30
2023-02-06T13:24:01.426Z,22.40
2023-02-06T13:26:43.261Z,20.88
2023-02-06T13:29:28.860Z,22.80
2023-02-06T13:32:19.889Z,25.90
2023-02-06T13:34:49.223Z,26.13
2023-02-06T13:37:35.446Z,25.85
2023-02-06T13:40:30.326Z,27.13
2023-02-06T13:43:10.018Z,31.38
2023-02-06T13:45:57.441Z,31.42
2023-02-06T13:48:51.614Z,32.97
2023-02-06T13:51:42.769Z,33.25
2023-02-06T13:54:30.838Z,33.70
2023-02-06T13:57:28.835Z,33.03
2023-02-06T14:00:01.324Z,33.13
2023-02-06T14:02:38.090Z,31.80
2023-02-06T14:05:08.717Z,32.55
2023-02-06T14:08:05.677Z,29.67
2023-02-06T14:11:25.102Z,27.75
2023-02-06T14:14:21.677Z,27.80
2023-02-06T14:17:04.331Z,26.98
2023-02-06T14:19:55.096Z,25.05
2023-02-06T14:22:34.414Z,21.88
2023-02-06T14:25:34.908Z,23.92
2023-02-06T14:28:39.387Z,22.67
2023-02-06T14:31:21.392Z,21.98
2023-02-06T14:34:00.517Z,23.95
2023-02-06T14:36:45.263Z,22.17
2023-02-06T14:39:34.366Z,21.58
2023-02-06T14:42:07.142Z,22.65
2023-02-06T14:44:34.850Z,22.70
2023-02-06T14:47:01.645Z,23.15
2023-02-06T14:49:33.725Z,23.77
2023-02-06T14:52:01.316Z,23.70
2023-02-06T14:54:36.519Z,23.95
2023-02-06T14:57:06.413Z,22.95
2023-02-06T14:59:33.315Z,22.60
2023-02-06T15:02:12.618Z,23.42
2023-02-06T15:04:47.120Z,24.33
2023-02-06T15:07:24.843Z,21.83
2023-02-06T15:10:05.726Z,20.75
2023-02-06T15:12:33.037Z,20.80
2023-02-06T15:15:05.171Z,22.08
2023-02-06T15:17:34.084Z,21.02
2023-02-06T15:20:28.296Z,20.73
2023-02-06T15:23:08.107Z,20.42
2023-02-06T15:26:06.014Z,21.08
2023-02-06T15:28:34.247Z,20.30
2023-02-06T15:31:01.933Z,18.55
2023-02-06T15:33:31.233Z,19.70
2023-02-06T15:36:00.355Z,18.92
2023-02-06T15:38:29.552Z,18.50
2023-02-06T15:40:59.236Z,16.83
2023-02-06T15:43:27.247Z,19.38
2023-02-06T15:45:57.246Z,18.50
2023-02-06T15:48:37.562Z,16.73
2023-02-06T15:51:30.692Z,17.33
2023-02-06T15:54:19.359Z,17.90
2023-02-06T15:56:50.477Z,19.50
2023-02-06T16:01:47.844Z,16.83
2023-02-06T16:04:24.100Z,17.20
2023-02-06T16:07:17.092Z,18.92
2023-02-06T16:09:50.187Z,16.30
2023-02-06T16:12:17.943Z,17.92
2023-02-06T16:15:01.812Z,16.83
2023-02-06T16:17:37.860Z,18.35
2023-02-06T16:20:32.851Z,18.35
2023-02-06T16:23:19.540Z,17.65
2023-02-06T16:25:47.507Z,17.63
2023-02-06T16:28:22.720Z,17.60
2023-02-06T16:30:58.152Z,17.52
2023-02-06T16:33:47.104Z,16.85
2023-02-06T16:36:15.546Z,18.35
2023-02-06T16:38:48.261Z,18.13
2023-02-06T16:41:38.157Z,18.33
2023-02-06T16:44:11.194Z,18.20
2023-02-06T16:46:37.673Z,18.35
2023-02-06T16:49:17.274Z,19.23
2023-02-06T16:51:44.592Z,17.83
2023-02-06T16:54:28.062Z,18.63
2023-02-06T16:56:55.994Z,18.85
2023-02-06T16:59:22.897Z,19.73
2023-02-06T17:01:49.443Z,18.33
2023-02-06T17:04:15.967Z,19.52
2023-02-06T17:06:42.499Z,19.60
2023-02-06T17:09:12.228Z,19.80
2023-02-06T17:11:39.043Z,20.67
2023-02-06T17:14:06.013Z,18.55
2023-02-06T17:16:33.581Z,20.88
2023-02-06T17:19:00.131Z,19.23
2023-02-06T17:21:29.636Z,18.80
2023-02-06T17:23:56.206Z,18.40
2023-02-06T17:26:23.101Z,18.33
2023-02-06T17:28:50.732Z,19.13
2023-02-06T17:31:18.122Z,17.25
2023-02-06T17:33:44.749Z,17.85
2023-02-06T17:36:17.228Z,18.58
2023-02-06T17:38:44.236Z,17.08
2023-02-06T17:41:10.879Z,17.42
2023-02-06T17:43:37.569Z,19.05
2023-02-06T17:46:05.559Z,18.35
2023-02-06T17:48:36.328Z,21.25
2023-02-06T17:51:04.872Z,19.67
2023-02-06T17:53:31.704Z,18.95
2023-02-06T17:56:12.875Z,18.40
2023-02-06T17:58:43.060Z,20.08
2023-02-06T18:01:15.871Z,18.42
2023-02-06T18:03:42.685Z,20.90
2023-02-06T18:06:10.589Z,17.13
2023-02-06T18:08:37.275Z,18.73
2023-02-06T18:11:12.285Z,18.52
2023-02-06T18:13:39.938Z,18.13
2023-02-06T18:16:07.520Z,19.63
2023-02-06T18:18:34.178Z,17.50
2023-02-06T18:21:00.737Z,19.02
2023-02-06T18:23:27.280Z,18.15
2023-02-06T18:25:53.926Z,18.15
2023-02-06T18:28:20.538Z,18.27
2023-02-06T18:30:47.205Z,19.02
2023-02-06T18:33:13.814Z,19.67
2023-02-06T18:35:42.366Z,18.13
2023-02-06T18:38:09.882Z,17.95
2023-02-06T18:40:37.805Z,16.90
2023-02-06T18:43:05.242Z,16.42
2023-02-06T18:45:34.379Z,16.27
2023-02-06T18:48:02.411Z,15.90
2023-02-06T18:50:29.025Z,14.73
2023-02-06T18:52:55.819Z,15.13
2023-02-06T18:55:23.185Z,15.90
2023-02-06T18:57:50.076Z,13.48
2023-02-06T19:00:18.512Z,14.88
2023-02-06T19:02:45.248Z,14.23
2023-02-06T19:05:11.789Z,14.60
2023-02-06T19:07:39.692Z,14.88
2023-02-06T19:10:09.983Z,14.57
2023-02-06T19:12:37.548Z,17.23
2023-02-06T19:15:05.571Z,16.25
2023-02-06T19:17:32.839Z,15.85
2023-02-06T19:19:59.425Z,16.95
2023-02-06T19:22:26.366Z,16.55
2023-02-06T19:24:53.342Z,17.27
2023-02-06T19:27:21.361Z,17.40
2023-02-06T19:29:47.947Z,16.17
2023-02-06T19:32:14.490Z,16.58
2023-02-06T19:34:41.885Z,17.70
2023-02-06T19:37:10.004Z,16.00
2023-02-06T19:39:39.815Z,16.45
2023-02-06T19:42:09.441Z,15.63
2023-02-06T19:44:36.949Z,15.50
2023-02-06T19:47:03.703Z,16.27
2023-02-06T19:49:30.500Z,16.48
2023-02-06T19:51:57.003Z,16.13
2023-02-06T19:54:23.512Z,15.20
2023-02-06T19:56:50.057Z,16.05
2023-02-06T19:59:19.399Z,17.67
2023-02-06T20:01:46.804Z,15.90
2023-02-06T20:04:13.684Z,17.00
2023-02-06T20:06:43.659Z,18.38
2023-02-06T20:09:14.627Z,16.88
2023-02-06T20:11:41.899Z,18.75
2023-02-06T20:14:09.243Z,17.42
2023-02-06T20:16:37.832Z,16.80
2023-02-06T20:19:09.107Z,16.83
2023-02-06T20:21:39.206Z,18.00
2023-02-06T20:24:08.272Z,14.93
2023-02-06T20:26:37.054Z,16.25
2023-02-06T20:29:05.223Z,14.38
2023-02-06T20:31:33.673Z,15.32
2023-02-06T20:34:00.217Z,15.80
2023-02-06T20:36:27.784Z,15.05
2023-02-06T20:38:57.432Z,14.75
2023-02-06T20:41:29.674Z,16.30
2023-02-06T20:44:02.408Z,15.10
2023-02-06T20:46:30.659Z,16.17
2023-02-06T20:48:59.207Z,14.55
2023-02-06T20:51:26.152Z,14.07
2023-02-06T20:53:53.243Z,16.42
2023-02-06T20:56:21.188Z,14.77
2023-02-06T20:58:50.165Z,14.25
2023-02-06T21:01:22.260Z,16.17
2023-02-06T21:03:49.971Z,14.88
2023-02-06T21:06:16.675Z,16.48
2023-02-06T21:08:45.629Z,16.02
2023-02-06T21:11:12.208Z,16.33
2023-02-06T21:13:40.542Z,15.45
2023-02-06T21:16:07.438Z,16.05
2023-02-06T21:18:34.063Z,16.15
2023-02-06T21:21:08.935Z,15.95
2023-02-06T21:23:36.970Z,15.73
2023-02-06T21:26:04.776Z,16.05
2023-02-06T21:28:32.921Z,16.08
2023-02-06T21:31:02.508Z,17.35
2023-02-06T21:33:29.391Z,17.85
2023-02-06T21:35:58.424Z,18.17
2023-02-06T21:38:25.083Z,19.30
2023-02-06T21:40:51.646Z,17.63
2023-02-06T21:43:18.222Z,19.05
2023-02-06T21:45:47.633Z,17.85
2023-02-06T21:48:14.651Z,19.60
2023-02-06T21:50:41.491Z,18.40
2023-02-06T21:53:08.903Z,18.75
2023-02-06T21:55:41.251Z,19.67
2023-02-06T21:58:07.812Z,18.27
2023-02-06T22:00:34.382Z,17.70
2023-02-06T22:03:00.961Z,17.58
2023-02-06T22:05:28.392Z,17.88
2023-02-06T22:07:54.893Z,18.23
2023-02-06T22:10:21.497Z,19.80
2023-02-06T22:12:49.065Z,19.27
2023-02-06T22:15:15.655Z,18.17
2023-02-06T22:17:42.151Z,20.10
2023-02-06T22:20:08.868Z,20.02
2023-02-06T22:22:37.178Z,19.88
2023-02-06T22:25:03.737Z,20.42
2023-02-06T22:27:32.692Z,20.25
2023-02-06T22:29:59.215Z,19.98
2023-02-06T22:32:25.735Z,21.13
2023-02-06T22:34:53.801Z,19.70
2023-02-06T22:37:20.377Z,22.00
2023-02-06T22:39:46.873Z,19.67
2023-02-06T22:42:13.454Z,21.40
2023-02-06T22:44:40.170Z,21.45
2023-02-06T22:47:07.212Z,20.42
2023-02-06T22:49:33.767Z,20.30
2023-02-06T22:52:01.419Z,21.17
2023-02-06T22:54:28.000Z,19.48
2023-02-06T22:56:54.780Z,19.55
2023-02-06T22:59:24.105Z,20.67
2023-02-06T23:01:55.409Z,21.27
2023-02-06T23:04:27.121Z,18.75
2023-02-06T23:06:54.640Z,21.33
2023-02-06T23:09:29.825Z,19.45
2023-02-06T23:11:58.265Z,21.40
2023-02-06T23:14:26.177Z,19.50
2023-02-06T23:16:52.753Z,20.60
2023-02-06T23:19:20.046Z,20.92
2023-02-06T23:21:48.145Z,21.85
2023-02-06T23:24:15.072Z,21.88
2023-02-06T23:26:43.717Z,21.45
2023-02-06T23:29:15.537Z,23.00
2023-02-06T23:31:43.221Z,19.30
2023-02-06T23:34:09.949Z,22.02
2023-02-06T23:36:37.413Z,22.23
2023-02-06T23:39:05.323Z,20.75
2023-02-06T23:41:33.046Z,23.42
2023-02-06T23:44:01.716Z,21.98
2023-02-06T23:46:30.634Z,21.30
2023-02-06T23:48:57.320Z,21.65
2023-02-06T23:51:24.420Z,22.00
2023-02-06T23:53:51.175Z,21.70
2023-02-06T23:56:25.344Z,21.80
2023-02-06T23:58:53.632Z,21.77
